sensor_id;sensor_type;location;lat;lon;timestamp;pressure;altitude;pressure_sealevel;temperature;humidity
69173;BME280;56280;49.662;8.408;2023-07-20T00:01:58;100484.56;;;22.49;44.76
69173;BME280;56280;49.662;8.408;2023-07-20T00:04:23;100492.28;;;22.52;45.01
69173;BME280;56280;49.662;8.408;2023-07-20T00:06:49;100481.94;;;22.20;45.44
69173;BME280;56280;49.662;8.408;2023-07-20T00:09:14;100482.19;;;22.26;45.31
69173;BME280;56280;49.662;8.408;2023-07-20T00:11:39;100471.31;;;22.19;45.26
69173;BME280;56280;49.662;8.408;2023-07-20T00:14:05;100493.75;;;22.13;45.38
69173;BME280;56280;49.662;8.408;2023-07-20T00:16:31;100493.75;;;22.06;45.47
69173;BME280;56280;49.662;8.408;2023-07-20T00:18:56;100488.97;;;22.15;45.79
69173;BME280;56280;49.662;8.408;2023-07-20T00:21:21;100469.19;;;22.08;45.25
69173;BME280;56280;49.662;8.408;2023-07-20T00:23:46;100488.78;;;22.16;45.35
69173;BME280;56280;49.662;8.408;2023-07-20T00:26:12;100487.53;;;22.12;44.95
69173;BME280;56280;49.662;8.408;2023-07-20T00:28:37;100493.53;;;21.73;46.12
69173;BME280;56280;49.662;8.408;2023-07-20T00:31:03;100499.38;;;21.76;46.22
69173;BME280;56280;49.662;8.408;2023-07-20T00:33:28;100496.69;;;21.83;45.99
69173;BME280;56280;49.662;8.408;2023-07-20T00:35:53;100495.59;;;21.71;46.34
69173;BME280;56280;49.662;8.408;2023-07-20T00:38:18;100491.81;;;21.65;46.62
69173;BME280;56280;49.662;8.408;2023-07-20T00:40:44;100479.38;;;21.71;46.19
69173;BME280;56280;49.662;8.408;2023-07-20T00:43:09;100480.59;;;21.68;46.23
69173;BME280;56280;49.662;8.408;2023-07-20T00:45:36;100498.16;;;21.79;46.16
69173;BME280;56280;49.662;8.408;2023-07-20T00:48:04;100495.06;;;21.54;46.47
69173;BME280;56280;49.662;8.408;2023-07-20T00:50:29;100481.66;;;21.45;47.00
69173;BME280;56280;49.662;8.408;2023-07-20T00:52:56;100497.16;;;21.58;46.63
69173;BME280;56280;49.662;8.408;2023-07-20T00:55:23;100501.19;;;21.47;47.06
69173;BME280;56280;49.662;8.408;2023-07-20T00:57:49;100506.38;;;21.64;46.92
69173;BME280;56280;49.662;8.408;2023-07-20T01:00:15;100491.44;;;21.46;46.94
69173;BME280;56280;49.662;8.408;2023-07-20T01:02:41;100496.59;;;21.41;47.36
69173;BME280;56280;49.662;8.408;2023-07-20T01:05:06;100509.06;;;21.42;47.61
69173;BME280;56280;49.662;8.408;2023-07-20T01:07:43;100504.50;;;21.43;47.40
69173;BME280;56280;49.662;8.408;2023-07-20T01:10:17;100507.66;;;21.46;47.20
69173;BME280;56280;49.662;8.408;2023-07-20T01:12:47;100501.59;;;21.44;47.13
69173;BME280;56280;49.662;8.408;2023-07-20T01:15:13;100481.50;;;21.25;47.80
69173;BME280;56280;49.662;8.408;2023-07-20T01:17:39;100499.41;;;21.33;47.41
69173;BME280;56280;49.662;8.408;2023-07-20T01:20:08;100496.41;;;21.21;47.63
69173;BME280;56280;49.662;8.408;2023-07-20T01:23:39;100502.72;;;21.28;47.79
69173;BME280;56280;49.662;8.408;2023-07-20T01:31:24;100506.91;;;21.09;48.58
69173;BME280;56280;49.662;8.408;2023-07-20T01:33:53;100500.78;;;21.01;48.76
69173;BME280;56280;49.662;8.408;2023-07-20T01:36:19;100512.31;;;21.09;49.11
69173;BME280;56280;49.662;8.408;2023-07-20T01:38:46;100496.25;;;21.01;48.91
69173;BME280;56280;49.662;8.408;2023-07-20T01:41:13;100503.28;;;21.02;48.59
69173;BME280;56280;49.662;8.408;2023-07-20T01:43:39;100505.81;;;21.04;49.23
69173;BME280;56280;49.662;8.408;2023-07-20T01:46:04;100500.28;;;20.90;49.47
69173;BME280;56280;49.662;8.408;2023-07-20T01:48:30;100502.16;;;20.90;49.41
69173;BME280;56280;49.662;8.408;2023-07-20T01:50:55;100503.78;;;20.69;48.79
69173;BME280;56280;49.662;8.408;2023-07-20T01:53:20;100511.22;;;20.52;49.40
69173;BME280;56280;49.662;8.408;2023-07-20T01:55:46;100513.44;;;20.27;50.37
69173;BME280;56280;49.662;8.408;2023-07-20T01:58:11;100497.88;;;19.99;51.08
69173;BME280;56280;49.662;8.408;2023-07-20T02:00:37;100507.66;;;19.85;51.60
69173;BME280;56280;49.662;8.408;2023-07-20T02:03:02;100510.81;;;20.04;52.24
69173;BME280;56280;49.662;8.408;2023-07-20T02:05:28;100498.00;;;20.06;52.30
69173;BME280;56280;49.662;8.408;2023-07-20T02:07:53;100491.00;;;20.12;51.69
69173;BME280;56280;49.662;8.408;2023-07-20T02:10:18;100490.66;;;20.15;51.49
69173;BME280;56280;49.662;8.408;2023-07-20T02:12:44;100503.72;;;20.33;51.58
69173;BME280;56280;49.662;8.408;2023-07-20T02:15:09;100500.41;;;20.31;51.46
69173;BME280;56280;49.662;8.408;2023-07-20T02:17:34;100489.16;;;20.27;51.77
69173;BME280;56280;49.662;8.408;2023-07-20T02:20:00;100495.56;;;20.26;51.11
69173;BME280;56280;49.662;8.408;2023-07-20T02:22:25;100513.25;;;20.29;51.82
69173;BME280;56280;49.662;8.408;2023-07-20T02:24:50;100496.13;;;20.21;51.31
69173;BME280;56280;49.662;8.408;2023-07-20T02:27:16;100499.00;;;20.20;51.30
69173;BME280;56280;49.662;8.408;2023-07-20T02:29:42;100507.72;;;20.22;50.96
69173;BME280;56280;49.662;8.408;2023-07-20T02:32:08;100504.13;;;20.15;52.40
69173;BME280;56280;49.662;8.408;2023-07-20T02:34:34;100508.03;;;20.12;51.99
69173;BME280;56280;49.662;8.408;2023-07-20T02:37:00;100499.22;;;20.03;52.90
69173;BME280;56280;49.662;8.408;2023-07-20T02:39:27;100513.59;;;19.96;52.84
69173;BME280;56280;49.662;8.408;2023-07-20T02:41:53;100512.31;;;19.92;52.01
69173;BME280;56280;49.662;8.408;2023-07-20T02:44:18;100496.78;;;19.79;52.05
69173;BME280;56280;49.662;8.408;2023-07-20T02:46:43;100503.47;;;19.83;51.58
69173;BME280;56280;49.662;8.408;2023-07-20T02:49:09;100514.63;;;19.80;51.78
69173;BME280;56280;49.662;8.408;2023-07-20T02:51:34;100509.88;;;19.44;52.97
69173;BME280;56280;49.662;8.408;2023-07-20T02:53:59;100473.84;;;19.07;54.73
69173;BME280;56280;49.662;8.408;2023-07-20T02:56:25;100516.00;;;19.15;54.38
69173;BME280;56280;49.662;8.408;2023-07-20T02:58:50;100514.56;;;19.04;54.97
69173;BME280;56280;49.662;8.408;2023-07-20T03:01:16;100518.41;;;19.09;55.49
69173;BME280;56280;49.662;8.408;2023-07-20T03:03:44;100518.53;;;19.16;55.21
69173;BME280;56280;49.662;8.408;2023-07-20T03:06:16;100528.81;;;19.12;54.99
69173;BME280;56280;49.662;8.408;2023-07-20T03:08:44;100515.66;;;19.18;54.43
69173;BME280;56280;49.662;8.408;2023-07-20T03:11:14;100507.75;;;19.16;54.90
69173;BME280;56280;49.662;8.408;2023-07-20T03:13:40;100520.28;;;19.24;54.73
69173;BME280;56280;49.662;8.408;2023-07-20T03:16:06;100504.53;;;19.21;55.23
69173;BME280;56280;49.662;8.408;2023-07-20T03:18:39;100507.09;;;19.14;54.74
69173;BME280;56280;49.662;8.408;2023-07-20T03:21:05;100510.56;;;19.23;54.77
69173;BME280;56280;49.662;8.408;2023-07-20T03:23:31;100517.44;;;19.25;55.05
69173;BME280;56280;49.662;8.408;2023-07-20T03:25:56;100514.09;;;19.23;55.17
69173;BME280;56280;49.662;8.408;2023-07-20T03:28:21;100516.97;;;19.22;54.96
69173;BME280;56280;49.662;8.408;2023-07-20T03:30:53;100515.16;;;19.14;55.60
69173;BME280;56280;49.662;8.408;2023-07-20T03:33:19;100510.81;;;19.13;55.20
69173;BME280;56280;49.662;8.408;2023-07-20T03:35:44;100523.97;;;19.08;55.52
69173;BME280;56280;49.662;8.408;2023-07-20T03:38:10;100512.88;;;19.03;55.29
69173;BME280;56280;49.662;8.408;2023-07-20T03:40:35;100521.28;;;19.08;55.90
69173;BME280;56280;49.662;8.408;2023-07-20T03:43:00;100527.16;;;19.11;55.55
69173;BME280;56280;49.662;8.408;2023-07-20T03:45:25;100521.28;;;19.08;55.33
69173;BME280;56280;49.662;8.408;2023-07-20T03:47:51;100529.72;;;19.05;56.18
69173;BME280;56280;49.662;8.408;2023-07-20T03:50:16;100531.38;;;19.06;56.40
69173;BME280;56280;49.662;8.408;2023-07-20T03:52:41;100527.75;;;18.99;57.15
69173;BME280;56280;49.662;8.408;2023-07-20T03:55:07;100520.00;;;18.95;56.86
69173;BME280;56280;49.662;8.408;2023-07-20T03:57:32;100527.38;;;19.02;56.44
69173;BME280;56280;49.662;8.408;2023-07-20T03:59:58;100538.38;;;19.15;56.72
69173;BME280;56280;49.662;8.408;2023-07-20T04:02:23;100530.78;;;19.19;56.95
69173;BME280;56280;49.662;8.408;2023-07-20T04:04:49;100525.63;;;19.09;57.48
69173;BME280;56280;49.662;8.408;2023-07-20T04:07:14;100529.41;;;19.23;57.29
69173;BME280;56280;49.662;8.408;2023-07-20T04:09:39;100532.50;;;19.35;56.82
69173;BME280;56280;49.662;8.408;2023-07-20T04:12:06;100537.34;;;19.39;56.97
69173;BME280;56280;49.662;8.408;2023-07-20T04:14:31;100527.59;;;19.38;56.62
69173;BME280;56280;49.662;8.408;2023-07-20T04:16:56;100526.25;;;19.57;56.35
69173;BME280;56280;49.662;8.408;2023-07-20T04:19:21;100533.53;;;19.72;56.28
69173;BME280;56280;49.662;8.408;2023-07-20T04:21:47;100528.38;;;19.85;55.98
69173;BME280;56280;49.662;8.408;2023-07-20T04:24:12;100528.97;;;19.95;55.09
69173;BME280;56280;49.662;8.408;2023-07-20T04:26:37;100507.03;;;19.98;55.05
69173;BME280;56280;49.662;8.408;2023-07-20T04:29:03;100538.06;;;20.24;54.93
69173;BME280;56280;49.662;8.408;2023-07-20T04:31:28;100526.53;;;20.30;54.16
69173;BME280;56280;49.662;8.408;2023-07-20T04:33:54;100543.81;;;20.51;53.95
69173;BME280;56280;49.662;8.408;2023-07-20T04:36:20;100549.13;;;20.74;53.48
69173;BME280;56280;49.662;8.408;2023-07-20T04:38:45;100546.75;;;20.86;52.96
69173;BME280;56280;49.662;8.408;2023-07-20T04:41:11;100549.88;;;21.04;52.75
69173;BME280;56280;49.662;8.408;2023-07-20T04:43:41;100551.66;;;21.19;52.33
69173;BME280;56280;49.662;8.408;2023-07-20T04:46:06;100546.03;;;21.35;52.02
69173;BME280;56280;49.662;8.408;2023-07-20T04:48:32;100542.03;;;21.53;51.18
69173;BME280;56280;49.662;8.408;2023-07-20T04:50:57;100552.13;;;21.65;51.21
69173;BME280;56280;49.662;8.408;2023-07-20T04:53:22;100536.75;;;21.66;50.61
69173;BME280;56280;49.662;8.408;2023-07-20T04:55:49;100539.34;;;21.81;50.51
69173;BME280;56280;49.662;8.408;2023-07-20T04:58:20;100554.59;;;22.24;49.85
69173;BME280;56280;49.662;8.408;2023-07-20T05:00:47;100544.66;;;22.31;49.62
69173;BME280;56280;49.662;8.408;2023-07-20T05:03:12;100538.09;;;22.47;49.13
69173;BME280;56280;49.662;8.408;2023-07-20T05:05:38;100537.34;;;22.73;48.97
69173;BME280;56280;49.662;8.408;2023-07-20T05:08:06;100543.66;;;22.93;47.35
69173;BME280;56280;49.662;8.408;2023-07-20T05:10:31;100537.75;;;22.70;47.71
69173;BME280;56280;49.662;8.408;2023-07-20T05:12:57;100530.19;;;22.52;47.74
69173;BME280;56280;49.662;8.408;2023-07-20T05:15:23;100540.44;;;22.63;48.40
69173;BME280;56280;49.662;8.408;2023-07-20T05:17:48;100528.16;;;22.61;48.36
69173;BME280;56280;49.662;8.408;2023-07-20T05:20:14;100526.91;;;22.70;47.49
69173;BME280;56280;49.662;8.408;2023-07-20T05:22:39;100524.47;;;22.75;47.80
69173;BME280;56280;49.662;8.408;2023-07-20T05:25:09;100541.75;;;22.87;47.22
69173;BME280;56280;49.662;8.408;2023-07-20T05:27:37;100541.56;;;22.82;47.93
69173;BME280;56280;49.662;8.408;2023-07-20T05:30:03;100539.66;;;22.76;47.53
69173;BME280;56280;49.662;8.408;2023-07-20T05:32:28;100516.03;;;22.50;47.88
69173;BME280;56280;49.662;8.408;2023-07-20T05:34:54;100519.13;;;22.47;47.94
69173;BME280;56280;49.662;8.408;2023-07-20T05:37:20;100541.28;;;22.64;47.73
69173;BME280;56280;49.662;8.408;2023-07-20T05:39:45;100542.84;;;22.93;47.80
69173;BME280;56280;49.662;8.408;2023-07-20T05:42:10;100528.72;;;23.11;48.01
69173;BME280;56280;49.662;8.408;2023-07-20T05:44:36;100533.34;;;23.44;46.95
69173;BME280;56280;49.662;8.408;2023-07-20T05:47:01;100544.19;;;23.71;46.40
69173;BME280;56280;49.662;8.408;2023-07-20T05:49:28;100547.53;;;23.99;45.71
69173;BME280;56280;49.662;8.408;2023-07-20T05:51:54;100524.97;;;24.12;45.07
69173;BME280;56280;49.662;8.408;2023-07-20T05:54:21;100551.97;;;24.59;44.94
69173;BME280;56280;49.662;8.408;2023-07-20T05:56:46;100546.69;;;24.71;43.94
69173;BME280;56280;49.662;8.408;2023-07-20T05:59:11;100555.28;;;25.06;44.08
69173;BME280;56280;49.662;8.408;2023-07-20T06:01:37;100543.44;;;25.26;43.11
69173;BME280;56280;49.662;8.408;2023-07-20T06:04:02;100547.47;;;25.48;42.28
69173;BME280;56280;49.662;8.408;2023-07-20T06:06:28;100554.53;;;25.81;42.38
69173;BME280;56280;49.662;8.408;2023-07-20T06:08:53;100552.34;;;26.15;42.12
69173;BME280;56280;49.662;8.408;2023-07-20T06:11:19;100561.34;;;26.34;41.18
69173;BME280;56280;49.662;8.408;2023-07-20T06:13:45;100553.53;;;26.56;41.05
69173;BME280;56280;49.662;8.408;2023-07-20T06:16:10;100547.81;;;26.65;40.32
69173;BME280;56280;49.662;8.408;2023-07-20T06:18:35;100547.03;;;26.76;39.25
69173;BME280;56280;49.662;8.408;2023-07-20T06:21:01;100550.38;;;26.90;39.67
69173;BME280;56280;49.662;8.408;2023-07-20T06:23:26;100549.72;;;27.06;39.76
69173;BME280;56280;49.662;8.408;2023-07-20T06:25:51;100536.03;;;27.13;39.70
69173;BME280;56280;49.662;8.408;2023-07-20T06:28:17;100553.44;;;27.54;38.91
69173;BME280;56280;49.662;8.408;2023-07-20T06:30:43;100561.38;;;27.68;38.39
69173;BME280;56280;49.662;8.408;2023-07-20T06:33:08;100563.31;;;27.79;38.12
69173;BME280;56280;49.662;8.408;2023-07-20T06:35:34;100560.22;;;27.87;37.97
69173;BME280;56280;49.662;8.408;2023-07-20T06:38:01;100549.22;;;27.94;38.02
69173;BME280;56280;49.662;8.408;2023-07-20T06:40:26;100548.69;;;28.20;37.36
69173;BME280;56280;49.662;8.408;2023-07-20T06:42:52;100562.81;;;28.29;36.83
69173;BME280;56280;49.662;8.408;2023-07-20T06:45:17;100562.25;;;28.27;37.01
69173;BME280;56280;49.662;8.408;2023-07-20T06:47:42;100558.75;;;28.32;37.29
69173;BME280;56280;49.662;8.408;2023-07-20T06:50:08;100548.22;;;28.24;36.92
69173;BME280;56280;49.662;8.408;2023-07-20T06:52:34;100549.94;;;28.42;37.31
69173;BME280;56280;49.662;8.408;2023-07-20T06:54:59;100549.69;;;28.67;36.83
69173;BME280;56280;49.662;8.408;2023-07-20T06:57:25;100561.34;;;28.62;36.68
69173;BME280;56280;49.662;8.408;2023-07-20T06:59:50;100568.75;;;28.38;36.89
69173;BME280;56280;49.662;8.408;2023-07-20T07:02:15;100556.03;;;28.44;36.57
69173;BME280;56280;49.662;8.408;2023-07-20T07:04:41;100573.69;;;28.65;36.28
69173;BME280;56280;49.662;8.408;2023-07-20T07:07:07;100565.31;;;27.83;36.21
69173;BME280;56280;49.662;8.408;2023-07-20T07:09:32;100564.75;;;27.27;36.92
69173;BME280;56280;49.662;8.408;2023-07-20T07:11:57;100560.75;;;26.32;38.11
69173;BME280;56280;49.662;8.408;2023-07-20T07:14:22;100575.88;;;25.21;41.44
69173;BME280;56280;49.662;8.408;2023-07-20T07:16:48;100574.72;;;26.17;40.52
69173;BME280;56280;49.662;8.408;2023-07-20T07:19:13;100566.00;;;27.13;39.24
69173;BME280;56280;49.662;8.408;2023-07-20T07:21:38;100563.41;;;27.72;37.87
69173;BME280;56280;49.662;8.408;2023-07-20T07:24:05;100576.75;;;28.16;37.49
69173;BME280;56280;49.662;8.408;2023-07-20T07:26:32;100571.88;;;28.18;37.65
69173;BME280;56280;49.662;8.408;2023-07-20T07:28:57;100569.00;;;27.89;37.13
69173;BME280;56280;49.662;8.408;2023-07-20T07:31:22;100578.88;;;27.90;37.41
69173;BME280;56280;49.662;8.408;2023-07-20T07:33:49;100574.56;;;27.28;36.79
69173;BME280;56280;49.662;8.408;2023-07-20T07:36:15;100562.69;;;26.81;38.21
69173;BME280;56280;49.662;8.408;2023-07-20T07:38:40;100553.78;;;26.36;39.21
69173;BME280;56280;49.662;8.408;2023-07-20T07:41:05;100587.28;;;26.55;39.85
69173;BME280;56280;49.662;8.408;2023-07-20T07:43:30;100566.94;;;26.77;39.07
69173;BME280;56280;49.662;8.408;2023-07-20T07:45:56;100566.50;;;26.91;39.14
69173;BME280;56280;49.662;8.408;2023-07-20T07:48:22;100576.06;;;26.45;38.85
69173;BME280;56280;49.662;8.408;2023-07-20T07:50:47;100582.06;;;26.72;39.43
69173;BME280;56280;49.662;8.408;2023-07-20T07:53:13;100553.84;;;26.67;39.43
69173;BME280;56280;49.662;8.408;2023-07-20T07:55:38;100580.22;;;26.85;39.32
69173;BME280;56280;49.662;8.408;2023-07-20T07:58:04;100581.53;;;26.27;39.78
69173;BME280;56280;49.662;8.408;2023-07-20T08:00:29;100578.72;;;26.33;40.37
69173;BME280;56280;49.662;8.408;2023-07-20T08:02:54;100573.66;;;27.04;39.66
69173;BME280;56280;49.662;8.408;2023-07-20T08:05:20;100583.38;;;26.70;38.53
69173;BME280;56280;49.662;8.408;2023-07-20T08:07:45;100586.53;;;26.67;38.40
69173;BME280;56280;49.662;8.408;2023-07-20T08:10:11;100573.19;;;26.77;38.82
69173;BME280;56280;49.662;8.408;2023-07-20T08:12:36;100577.91;;;26.70;38.41
69173;BME280;56280;49.662;8.408;2023-07-20T08:15:02;100578.88;;;26.57;38.78
69173;BME280;56280;49.662;8.408;2023-07-20T08:17:27;100584.41;;;26.69;38.25
69173;BME280;56280;49.662;8.408;2023-07-20T08:19:52;100575.34;;;26.56;39.18
69173;BME280;56280;49.662;8.408;2023-07-20T08:22:18;100578.97;;;26.50;40.06
69173;BME280;56280;49.662;8.408;2023-07-20T08:24:43;100581.34;;;26.96;38.78
69173;BME280;56280;49.662;8.408;2023-07-20T08:27:09;100580.25;;;27.45;38.12
69173;BME280;56280;49.662;8.408;2023-07-20T08:29:37;100569.34;;;27.93;38.28
69173;BME280;56280;49.662;8.408;2023-07-20T08:32:04;100571.34;;;28.45;37.13
69173;BME280;56280;49.662;8.408;2023-07-20T08:34:29;100560.31;;;28.80;36.26
69173;BME280;56280;49.662;8.408;2023-07-20T08:36:55;100565.16;;;29.19;36.34
69173;BME280;56280;49.662;8.408;2023-07-20T08:39:21;100546.38;;;29.39;36.22
69173;BME280;56280;49.662;8.408;2023-07-20T08:41:48;100559.91;;;29.63;34.20
69173;BME280;56280;49.662;8.408;2023-07-20T08:44:13;100569.72;;;28.84;34.68
69173;BME280;56280;49.662;8.408;2023-07-20T08:46:39;100578.22;;;28.59;34.78
69173;BME280;56280;49.662;8.408;2023-07-20T08:49:06;100568.06;;;28.19;35.56
69173;BME280;56280;49.662;8.408;2023-07-20T08:51:31;100564.88;;;28.10;35.70
69173;BME280;56280;49.662;8.408;2023-07-20T08:53:58;100579.25;;;27.94;35.23
69173;BME280;56280;49.662;8.408;2023-07-20T08:56:25;100577.41;;;27.64;36.78
69173;BME280;56280;49.662;8.408;2023-07-20T08:58:55;100576.47;;;27.82;36.87
69173;BME280;56280;49.662;8.408;2023-07-20T09:01:21;100560.44;;;27.50;36.97
69173;BME280;56280;49.662;8.408;2023-07-20T09:03:47;100572.41;;;27.19;37.44
69173;BME280;56280;49.662;8.408;2023-07-20T09:06:14;100576.19;;;27.36;36.77
69173;BME280;56280;49.662;8.408;2023-07-20T09:08:42;100559.88;;;27.18;37.16
69173;BME280;56280;49.662;8.408;2023-07-20T09:11:11;100560.09;;;27.58;37.56
69173;BME280;56280;49.662;8.408;2023-07-20T09:13:37;100559.06;;;27.95;37.23
69173;BME280;56280;49.662;8.408;2023-07-20T09:16:03;100537.41;;;27.04;36.82
69173;BME280;56280;49.662;8.408;2023-07-20T09:18:31;100557.38;;;28.06;37.89
69173;BME280;56280;49.662;8.408;2023-07-20T09:21:01;100551.28;;;27.44;35.71
69173;BME280;56280;49.662;8.408;2023-07-20T09:23:34;100556.44;;;27.64;34.80
69173;BME280;56280;49.662;8.408;2023-07-20T09:26:00;100540.13;;;27.04;35.77
69173;BME280;56280;49.662;8.408;2023-07-20T09:28:26;100547.63;;;27.39;36.96
69173;BME280;56280;49.662;8.408;2023-07-20T09:30:52;100539.09;;;28.18;35.99
69173;BME280;56280;49.662;8.408;2023-07-20T09:33:19;100542.22;;;28.62;35.42
69173;BME280;56280;49.662;8.408;2023-07-20T09:35:45;100549.44;;;29.26;34.44
69173;BME280;56280;49.662;8.408;2023-07-20T09:38:10;100541.41;;;29.07;33.32
69173;BME280;56280;49.662;8.408;2023-07-20T09:40:39;100554.91;;;28.68;33.61
69173;BME280;56280;49.662;8.408;2023-07-20T09:43:07;100558.75;;;28.32;33.63
69173;BME280;56280;49.662;8.408;2023-07-20T09:45:33;100555.28;;;27.00;35.02
69173;BME280;56280;49.662;8.408;2023-07-20T09:48:06;100558.91;;;26.45;39.25
69173;BME280;56280;49.662;8.408;2023-07-20T09:50:32;100552.03;;;27.63;36.52
69173;BME280;56280;49.662;8.408;2023-07-20T09:52:58;100546.91;;;28.26;36.06
69173;BME280;56280;49.662;8.408;2023-07-20T09:55:26;100537.97;;;28.83;34.51
69173;BME280;56280;49.662;8.408;2023-07-20T09:57:52;100530.84;;;29.11;32.37
69173;BME280;56280;49.662;8.408;2023-07-20T10:00:18;100530.53;;;28.26;33.98
69173;BME280;56280;49.662;8.408;2023-07-20T10:02:45;100533.84;;;28.69;33.96
69173;BME280;56280;49.662;8.408;2023-07-20T10:05:14;100540.59;;;29.07;32.07
69173;BME280;56280;49.662;8.408;2023-07-20T10:07:43;100533.22;;;29.07;32.24
69173;BME280;56280;49.662;8.408;2023-07-20T10:10:10;100533.03;;;28.68;33.99
69173;BME280;56280;49.662;8.408;2023-07-20T10:12:37;100533.22;;;28.38;32.49
69173;BME280;56280;49.662;8.408;2023-07-20T10:15:11;100528.88;;;27.54;33.62
69173;BME280;56280;49.662;8.408;2023-07-20T10:17:41;100529.63;;;26.59;35.73
69173;BME280;56280;49.662;8.408;2023-07-20T10:20:16;100518.84;;;26.82;34.57
69173;BME280;56280;49.662;8.408;2023-07-20T10:22:45;100506.97;;;27.07;34.13
69173;BME280;56280;49.662;8.408;2023-07-20T10:25:13;100523.84;;;27.27;34.50
69173;BME280;56280;49.662;8.408;2023-07-20T10:27:39;100519.16;;;27.58;33.51
69173;BME280;56280;49.662;8.408;2023-07-20T10:30:05;100509.44;;;28.10;33.88
69173;BME280;56280;49.662;8.408;2023-07-20T10:32:31;100506.94;;;28.49;32.97
69173;BME280;56280;49.662;8.408;2023-07-20T10:34:57;100499.66;;;28.95;31.70
69173;BME280;56280;49.662;8.408;2023-07-20T10:40:32;100503.75;;;29.43;29.81
69173;BME280;56280;49.662;8.408;2023-07-20T10:43:02;100495.78;;;29.59;30.85
69173;BME280;56280;49.662;8.408;2023-07-20T10:45:35;100496.56;;;29.76;30.61
69173;BME280;56280;49.662;8.408;2023-07-20T10:48:05;100481.59;;;29.62;31.78
69173;BME280;56280;49.662;8.408;2023-07-20T10:50:32;100472.50;;;29.56;32.33
69173;BME280;56280;49.662;8.408;2023-07-20T10:53:11;100475.69;;;29.87;31.54
69173;BME280;56280;49.662;8.408;2023-07-20T10:55:38;100482.13;;;29.98;31.32
69173;BME280;56280;49.662;8.408;2023-07-20T10:58:11;100475.31;;;30.23;31.97
69173;BME280;56280;49.662;8.408;2023-07-20T11:00:38;100478.16;;;30.33;29.45
69173;BME280;56280;49.662;8.408;2023-07-20T11:03:27;100481.09;;;29.82;30.81
69173;BME280;56280;49.662;8.408;2023-07-20T11:05:53;100483.28;;;29.29;29.13
69173;BME280;56280;49.662;8.408;2023-07-20T11:08:40;100472.91;;;28.68;30.41
69173;BME280;56280;49.662;8.408;2023-07-20T11:11:32;100481.81;;;28.76;31.31
69173;BME280;56280;49.662;8.408;2023-07-20T11:13:59;100483.28;;;28.83;31.80
69173;BME280;56280;49.662;8.408;2023-07-20T11:16:43;100480.44;;;29.07;32.00
69173;BME280;56280;49.662;8.408;2023-07-20T11:19:25;100475.25;;;29.22;30.98
69173;BME280;56280;49.662;8.408;2023-07-20T11:21:55;100483.78;;;27.87;31.20
69173;BME280;56280;49.662;8.408;2023-07-20T11:24:21;100476.69;;;28.38;32.18
69173;BME280;56280;49.662;8.408;2023-07-20T11:26:50;100488.50;;;27.92;33.02
69173;BME280;56280;49.662;8.408;2023-07-20T11:29:17;100467.63;;;28.09;31.07
69173;BME280;56280;49.662;8.408;2023-07-20T11:31:44;100484.88;;;27.39;32.07
69173;BME280;56280;49.662;8.408;2023-07-20T11:34:14;100484.75;;;27.57;33.74
69173;BME280;56280;49.662;8.408;2023-07-20T11:36:45;100488.78;;;27.90;32.49
69173;BME280;56280;49.662;8.408;2023-07-20T11:39:13;100478.72;;;28.31;33.45
69173;BME280;56280;49.662;8.408;2023-07-20T11:41:43;100475.13;;;27.31;32.49
69173;BME280;56280;49.662;8.408;2023-07-20T11:44:09;100484.50;;;26.93;34.26
69173;BME280;56280;49.662;8.408;2023-07-20T11:46:39;100479.88;;;26.33;35.38
69173;BME280;56280;49.662;8.408;2023-07-20T11:49:04;100472.25;;;25.61;36.51
69173;BME280;56280;49.662;8.408;2023-07-20T11:51:30;100478.00;;;25.71;36.00
69173;BME280;56280;49.662;8.408;2023-07-20T11:53:57;100475.00;;;25.36;36.96
69173;BME280;56280;49.662;8.408;2023-07-20T11:56:25;100476.22;;;25.83;37.26
69173;BME280;56280;49.662;8.408;2023-07-20T11:58:55;100471.81;;;25.64;36.54
69173;BME280;56280;49.662;8.408;2023-07-20T12:01:21;100459.88;;;25.65;38.23
69173;BME280;56280;49.662;8.408;2023-07-20T12:03:48;100452.88;;;26.31;37.08
69173;BME280;56280;49.662;8.408;2023-07-20T12:06:13;100448.56;;;26.24;36.77
69173;BME280;56280;49.662;8.408;2023-07-20T12:08:40;100448.78;;;26.71;34.84
69173;BME280;56280;49.662;8.408;2023-07-20T12:11:07;100441.94;;;27.34;35.55
69173;BME280;56280;49.662;8.408;2023-07-20T12:13:44;100444.88;;;27.80;34.83
69173;BME280;56280;49.662;8.408;2023-07-20T12:16:14;100429.19;;;27.99;34.56
69173;BME280;56280;49.662;8.408;2023-07-20T12:18:42;100436.09;;;28.30;34.36
69173;BME280;56280;49.662;8.408;2023-07-20T12:21:08;100430.94;;;28.46;33.58
69173;BME280;56280;49.662;8.408;2023-07-20T12:23:41;100433.81;;;28.68;31.95
69173;BME280;56280;49.662;8.408;2023-07-20T12:26:08;100436.16;;;28.93;32.54
69173;BME280;56280;49.662;8.408;2023-07-20T12:28:38;100419.13;;;28.28;32.08
69173;BME280;56280;49.662;8.408;2023-07-20T12:31:04;100432.44;;;28.53;31.85
69173;BME280;56280;49.662;8.408;2023-07-20T12:33:30;100418.25;;;28.68;33.00
69173;BME280;56280;49.662;8.408;2023-07-20T12:35:55;100428.03;;;28.24;31.27
69173;BME280;56280;49.662;8.408;2023-07-20T12:38:23;100415.03;;;28.43;32.06
69173;BME280;56280;49.662;8.408;2023-07-20T12:40:48;100425.88;;;28.66;33.09
69173;BME280;56280;49.662;8.408;2023-07-20T12:43:14;100424.69;;;27.69;32.60
69173;BME280;56280;49.662;8.408;2023-07-20T12:45:39;100408.91;;;27.83;33.72
69173;BME280;56280;49.662;8.408;2023-07-20T12:48:05;100423.66;;;27.58;31.92
69173;BME280;56280;49.662;8.408;2023-07-20T12:50:30;100406.50;;;26.80;34.21
69173;BME280;56280;49.662;8.408;2023-07-20T12:52:55;100408.22;;;27.05;33.27
69173;BME280;56280;49.662;8.408;2023-07-20T12:55:21;100415.34;;;27.29;34.79
69173;BME280;56280;49.662;8.408;2023-07-20T12:57:46;100401.72;;;27.65;32.86